Time;durP1;ratioP1;P1;durP2;ratioP2;P2;SDS_P1;SDS_P2;PMS_P1;PMS_P2;Temp;Humidity;BMP_temperature;BMP_pressure;BME280_temperature;BME280_humidity;BME280_pressure;Samples;Min_cycle;Max_cycle;Signal;HPM_P1;HPM_P2
2021/11/28 00:00:42;;;;;;;20.50;12.03;;;-0.50;99.90;;;;;;5013119;28;20465;-61
2021/11/28 00:03:09;;;;;;;25.87;12.40;;;-0.50;99.90;;;;;;5026124;28;20424;-62
2021/11/28 00:05:35;;;;;;;23.00;11.10;;;-0.50;99.90;;;;;;5016349;28;20432;-62
2021/11/28 00:08:12;;;;;;;27.40;11.20;;;-0.50;99.90;;;;;;5019136;28;20460;-62
2021/11/28 00:16:15;;;;;;;16.67;10.63;;;-0.50;99.90;;;;;;5026641;28;20473;-63
2021/11/28 00:18:41;;;;;;;21.33;11.57;;;-0.50;99.90;;;;;;5025224;28;20977;-63
2021/11/28 00:21:07;;;;;;;19.50;11.10;;;-0.40;99.90;;;;;;5026087;28;20452;-61
2021/11/28 00:23:32;;;;;;;22.70;10.63;;;-0.40;99.90;;;;;;5025613;28;20229;-62
2021/11/28 00:25:58;;;;;;;22.00;12.03;;;-0.40;99.90;;;;;;5026490;28;20629;-61
2021/11/28 00:28:25;;;;;;;19.53;12.40;;;-0.40;99.90;;;;;;5028440;28;20172;-63
2021/11/28 00:30:50;;;;;;;22.40;12.30;;;-0.40;99.90;;;;;;5022808;28;20224;-62
2021/11/28 00:33:16;;;;;;;25.27;12.73;;;-0.40;99.90;;;;;;5025021;28;20459;-62
2021/11/28 00:35:42;;;;;;;22.67;12.97;;;-0.40;99.90;;;;;;5027117;28;20169;-60
2021/11/28 00:38:08;;;;;;;22.53;13.40;;;-0.40;99.90;;;;;;5025136;28;20433;-62
2021/11/28 00:40:33;;;;;;;26.17;12.47;;;-0.40;99.90;;;;;;5025957;28;20795;-61
2021/11/28 00:42:59;;;;;;;18.67;11.23;;;-0.40;99.90;;;;;;5018872;28;20648;-62
2021/11/28 00:45:25;;;;;;;17.27;10.87;;;-0.40;99.90;;;;;;5021805;28;20647;-62
2021/11/28 00:47:51;;;;;;;23.07;13.30;;;-0.40;99.90;;;;;;5024469;28;20432;-61
2021/11/28 00:50:25;;;;;;;28.83;14.83;;;-0.40;99.90;;;;;;5024122;28;20443;-62
2021/11/28 00:52:51;;;;;;;26.30;14.27;;;-0.40;99.90;;;;;;5024831;28;20208;-62
2021/11/28 00:55:17;;;;;;;24.17;13.97;;;-0.40;99.90;;;;;;5023685;28;20583;-62
2021/11/28 00:57:42;;;;;;;28.77;13.77;;;-0.40;99.90;;;;;;5023941;28;20170;-62
2021/11/28 01:00:10;;;;;;;25.97;13.23;;;-0.40;99.90;;;;;;5025693;28;20664;-62
2021/11/28 01:02:37;;;;;;;29.93;14.20;;;-0.40;99.90;;;;;;5020264;28;20185;-61
2021/11/28 01:05:04;;;;;;;25.97;13.90;;;-0.40;99.90;;;;;;5025731;28;20460;-61
2021/11/28 01:07:32;;;;;;;25.33;12.33;;;-0.40;99.90;;;;;;5023018;28;20413;-62
2021/11/28 01:09:58;;;;;;;20.90;10.43;;;-0.40;99.90;;;;;;5022890;28;20571;-61
2021/11/28 01:12:24;;;;;;;17.03;10.80;;;-0.40;99.90;;;;;;5023253;28;20456;-60
2021/11/28 01:14:51;;;;;;;16.80;9.83;;;-0.40;99.90;;;;;;5025815;28;20431;-62
2021/11/28 01:17:18;;;;;;;18.83;11.10;;;-0.40;99.90;;;;;;5026240;28;20451;-61
2021/11/28 01:19:44;;;;;;;19.03;10.73;;;-0.40;99.90;;;;;;5026029;28;20443;-61
2021/11/28 01:22:12;;;;;;;17.07;9.63;;;-0.40;99.90;;;;;;5029996;28;20456;-62
2021/11/28 01:24:38;;;;;;;17.40;10.00;;;-0.40;99.90;;;;;;5026503;28;21021;-61
2021/11/28 01:27:07;;;;;;;12.90;8.60;;;-0.40;99.90;;;;;;5028753;28;20519;-61
2021/11/28 01:29:32;;;;;;;12.90;8.80;;;-0.30;99.90;;;;;;5027409;28;20192;-61
2021/11/28 01:31:58;;;;;;;14.83;9.07;;;-0.30;99.90;;;;;;5029582;28;20463;-62
2021/11/28 01:34:25;;;;;;;12.63;8.40;;;-0.30;99.90;;;;;;5029842;28;20257;-62
2021/11/28 01:36:51;;;;;;;15.23;8.90;;;-0.30;99.90;;;;;;5027358;28;20462;-62
2021/11/28 01:39:17;;;;;;;13.97;8.63;;;-0.20;99.90;;;;;;5027784;28;20436;-60
2021/11/28 01:41:43;;;;;;;13.07;7.50;;;-0.30;99.90;;;;;;5024849;28;20458;-62
2021/11/28 01:44:09;;;;;;;15.30;8.33;;;-0.30;99.90;;;;;;5030143;28;20266;-62
2021/11/28 01:46:35;;;;;;;11.53;6.53;;;-0.30;99.90;;;;;;5024677;28;20236;-61
2021/11/28 01:49:02;;;;;;;17.23;7.60;;;-0.30;99.90;;;;;;5026427;28;20468;-62
2021/11/28 01:51:28;;;;;;;10.23;6.53;;;-0.30;99.90;;;;;;5029450;28;20566;-62
2021/11/28 01:53:54;;;;;;;13.90;7.27;;;-0.30;99.90;;;;;;5028675;28;20532;-62
2021/11/28 01:56:23;;;;;;;10.30;6.80;;;-0.30;99.90;;;;;;5031039;28;20260;-61
2021/11/28 01:58:49;;;;;;;10.50;6.67;;;-0.30;99.90;;;;;;5026892;28;20960;-60
2021/11/28 02:01:17;;;;;;;12.40;6.30;;;-0.30;99.90;;;;;;5024402;28;20441;-62
2021/11/28 02:03:44;;;;;;;13.13;8.27;;;-0.20;99.90;;;;;;5027148;28;20433;-62
2021/11/28 02:06:14;;;;;;;17.00;8.30;;;-0.20;99.90;;;;;;5028781;28;20428;-61
2021/11/28 02:08:41;;;;;;;11.70;7.53;;;-0.20;99.90;;;;;;5027418;28;20413;-62
2021/11/28 02:11:06;;;;;;;12.23;7.47;;;-0.20;99.90;;;;;;5026882;28;20464;-62
2021/11/28 02:13:32;;;;;;;14.33;8.43;;;-0.30;99.90;;;;;;5026076;28;20493;-61
2021/11/28 02:15:58;;;;;;;13.57;9.10;;;-0.30;99.90;;;;;;5027470;28;20232;-62
2021/11/28 02:18:25;;;;;;;14.37;8.30;;;-0.30;99.90;;;;;;5029395;28;21934;-62
2021/11/28 02:21:00;;;;;;;14.17;8.87;;;-0.30;99.90;;;;;;5027832;28;20474;-62
2021/11/28 02:23:27;;;;;;;13.50;8.40;;;-0.30;99.90;;;;;;5025618;28;20540;-62
2021/11/28 02:25:59;;;;;;;13.70;8.40;;;-0.30;99.90;;;;;;5026209;28;20431;-60
2021/11/28 02:28:24;;;;;;;14.07;8.30;;;-0.30;99.90;;;;;;5024385;28;20417;-61
2021/11/28 02:30:50;;;;;;;15.33;8.40;;;-0.30;99.90;;;;;;5028456;28;20440;-61
2021/11/28 02:33:16;;;;;;;9.57;7.17;;;-0.30;99.90;;;;;;5029403;28;20271;-63
2021/11/28 02:35:42;;;;;;;18.93;8.57;;;-0.30;99.90;;;;;;5027645;28;20438;-62
2021/11/28 02:38:08;;;;;;;14.13;7.53;;;-0.30;99.90;;;;;;5025600;28;20208;-61
2021/11/28 02:40:36;;;;;;;11.73;6.70;;;-0.30;99.90;;;;;;5019657;28;20235;-62
2021/11/28 02:43:02;;;;;;;10.77;7.10;;;-0.30;99.90;;;;;;5023208;28;20439;-62
2021/11/28 02:45:30;;;;;;;19.83;6.87;;;-0.30;99.90;;;;;;5021101;28;20416;-62
2021/11/28 02:47:58;;;;;;;11.70;6.30;;;-0.30;99.90;;;;;;5022872;28;20432;-63
2021/11/28 02:50:24;;;;;;;13.00;7.00;;;-0.30;99.90;;;;;;5022072;28;20463;-62
2021/11/28 02:52:53;;;;;;;8.63;6.27;;;-0.30;99.90;;;;;;5021278;28;20459;-62
2021/11/28 02:55:38;;;;;;;9.70;6.40;;;-0.30;99.90;;;;;;5021255;28;20231;-62
2021/11/28 02:58:06;;;;;;;8.23;5.70;;;-0.30;99.90;;;;;;5023425;28;20424;-61
2021/11/28 03:00:33;;;;;;;7.90;5.23;;;-0.30;99.90;;;;;;5021521;28;20535;-61
2021/11/28 03:02:59;;;;;;;10.60;5.80;;;-0.30;99.90;;;;;;5022322;28;21483;-60
2021/11/28 03:05:25;;;;;;;8.57;5.83;;;-0.30;99.90;;;;;;5018501;28;20509;-61
2021/11/28 03:07:51;;;;;;;9.83;5.97;;;-0.30;99.90;;;;;;5020416;28;20200;-63
2021/11/28 03:10:53;;;;;;;7.40;5.20;;;-0.30;99.90;;;;;;5020465;28;20212;-62
2021/11/28 03:13:32;;;;;;;7.27;4.67;;;-0.30;99.90;;;;;;4988369;28;20437;-62
2021/11/28 03:16:07;;;;;;;7.60;5.20;;;-0.30;99.90;;;;;;5018697;28;20408;-62
2021/11/28 03:18:33;;;;;;;6.97;4.73;;;-0.30;99.90;;;;;;5019077;28;20415;-63
2021/11/28 03:21:05;;;;;;;6.53;4.93;;;-0.30;99.90;;;;;;5020288;28;20472;-62
2021/11/28 03:23:32;;;;;;;12.73;6.27;;;-0.30;99.90;;;;;;5020065;28;20502;-62
2021/11/28 03:26:04;;;;;;;8.20;5.93;;;-0.30;99.90;;;;;;5018180;28;20431;-61
2021/11/28 03:28:30;;;;;;;9.03;6.40;;;-0.30;99.90;;;;;;5021008;28;20860;-62
2021/11/28 03:30:55;;;;;;;11.23;7.20;;;-0.30;99.90;;;;;;5018770;28;20898;-60
2021/11/28 03:33:21;;;;;;;12.23;6.93;;;-0.30;99.90;;;;;;5021104;28;20168;-62
2021/11/28 03:35:46;;;;;;;9.53;6.90;;;-0.20;99.90;;;;;;5020339;28;20178;-61
2021/11/28 03:38:12;;;;;;;11.70;6.70;;;-0.30;99.90;;;;;;5022176;28;20178;-62
2021/11/28 03:40:38;;;;;;;13.30;7.70;;;-0.20;99.90;;;;;;5017506;28;20186;-61
2021/11/28 03:43:05;;;;;;;13.13;7.03;;;-0.30;99.90;;;;;;5023144;28;20272;-63
2021/11/28 03:45:30;;;;;;;8.67;6.10;;;-0.30;99.90;;;;;;5019474;28;20417;-62
2021/11/28 03:47:56;;;;;;;12.70;7.40;;;-0.30;99.90;;;;;;5018200;28;20428;-63
2021/11/28 03:50:22;;;;;;;9.87;6.53;;;-0.30;99.90;;;;;;5018118;28;20198;-62
2021/11/28 03:52:47;;;;;;;10.10;6.50;;;-0.30;99.90;;;;;;5022531;28;20193;-62
2021/11/28 03:55:15;;;;;;;11.60;7.03;;;-0.30;99.90;;;;;;5021228;28;20635;-63
2021/11/28 03:57:41;;;;;;;8.30;6.43;;;-0.20;99.90;;;;;;5020268;28;20680;-62
2021/11/28 04:00:09;;;;;;;10.40;6.53;;;-0.20;99.90;;;;;;5018379;28;20445;-62
2021/11/28 04:02:35;;;;;;;11.13;6.23;;;-0.30;99.90;;;;;;5018546;28;20675;-60
2021/11/28 04:05:01;;;;;;;8.23;6.67;;;-0.20;99.90;;;;;;5021690;28;20412;-62
2021/11/28 04:07:26;;;;;;;8.93;5.97;;;-0.20;99.90;;;;;;5019718;28;20537;-62
2021/11/28 04:09:52;;;;;;;8.87;6.70;;;-0.20;99.90;;;;;;5016952;28;20636;-62
2021/11/28 04:12:18;;;;;;;9.07;6.13;;;-0.20;99.90;;;;;;5018883;28;20398;-62
2021/11/28 04:14:44;;;;;;;9.13;6.23;;;-0.20;99.90;;;;;;5018929;28;20166;-62
2021/11/28 04:17:09;;;;;;;10.13;6.60;;;-0.10;99.90;;;;;;5019111;28;20215;-63
2021/11/28 04:19:35;;;;;;;8.70;6.80;;;-0.10;99.90;;;;;;5020871;28;20460;-60
2021/11/28 04:22:01;;;;;;;10.10;6.87;;;-0.10;99.90;;;;;;5043156;23;20271;-60
2021/11/28 04:24:27;;;;;;;8.83;6.47;;;-0.10;99.90;;;;;;5025437;28;20224;-59
2021/11/28 04:26:53;;;;;;;13.53;6.00;;;-0.10;99.90;;;;;;5026419;28;20439;-59
2021/11/28 04:29:18;;;;;;;8.87;5.97;;;-0.10;99.90;;;;;;5023315;28;20182;-59
2021/11/28 04:31:47;;;;;;;9.87;6.20;;;-0.10;99.90;;;;;;5028541;28;20595;-59
2021/11/28 04:34:13;;;;;;;9.90;6.60;;;0.00;99.90;;;;;;5029026;28;20252;-61
2021/11/28 04:36:39;;;;;;;9.50;6.90;;;0.00;99.90;;;;;;5030389;28;20429;-60
2021/11/28 04:39:05;;;;;;;14.30;6.57;;;0.00;99.90;;;;;;5033145;28;20493;-60
2021/11/28 04:41:31;;;;;;;10.07;6.77;;;0.10;99.90;;;;;;5024699;28;20201;-59
2021/11/28 04:43:57;;;;;;;15.47;8.00;;;0.10;99.90;;;;;;5025116;28;20189;-60
2021/11/28 04:46:23;;;;;;;11.53;7.27;;;0.10;99.90;;;;;;5025279;28;20424;-59
2021/11/28 04:48:48;;;;;;;10.23;6.13;;;0.10;99.90;;;;;;5025736;28;20462;-60
2021/11/28 04:51:14;;;;;;;9.37;6.27;;;0.10;99.90;;;;;;5024104;28;20209;-59
2021/11/28 04:53:39;;;;;;;9.20;6.40;;;0.10;99.90;;;;;;5024759;28;20307;-59
2021/11/28 04:56:05;;;;;;;10.53;6.80;;;0.10;99.90;;;;;;5025970;28;20202;-59
2021/11/28 04:58:31;;;;;;;12.33;6.90;;;0.10;99.90;;;;;;5023919;28;20227;-59
2021/11/28 05:00:57;;;;;;;7.10;5.67;;;0.10;99.90;;;;;;5021795;28;20201;-58
2021/11/28 05:03:23;;;;;;;12.17;6.70;;;0.10;99.90;;;;;;5026182;28;20417;-60
2021/11/28 05:05:48;;;;;;;11.63;6.80;;;0.10;99.90;;;;;;5025690;28;20748;-60
2021/11/28 05:08:14;;;;;;;13.97;7.13;;;0.10;99.90;;;;;;5026518;28;20549;-60
2021/11/28 05:10:39;;;;;;;9.10;6.53;;;0.10;99.90;;;;;;5021687;28;20220;-59
2021/11/28 05:13:05;;;;;;;12.20;7.10;;;0.00;99.90;;;;;;5022589;28;20865;-60
2021/11/28 05:15:31;;;;;;;13.40;7.60;;;0.00;99.90;;;;;;5024609;28;20174;-60
2021/11/28 05:17:56;;;;;;;17.00;7.03;;;0.00;99.90;;;;;;5025647;28;20205;-60
2021/11/28 05:20:22;;;;;;;10.30;6.93;;;0.00;99.90;;;;;;5023890;28;20636;-60
2021/11/28 05:22:48;;;;;;;8.50;6.00;;;-0.10;99.90;;;;;;5023558;28;20275;-60
2021/11/28 05:25:13;;;;;;;10.13;6.23;;;-0.10;99.90;;;;;;5023580;28;20176;-60
2021/11/28 05:27:41;;;;;;;9.60;6.60;;;-0.10;99.90;;;;;;5025695;28;20200;-61
2021/11/28 05:30:07;;;;;;;8.00;6.20;;;-0.10;99.90;;;;;;5024408;28;20171;-60
2021/11/28 05:32:33;;;;;;;9.80;6.03;;;-0.10;99.90;;;;;;5021603;28;20464;-60
2021/11/28 05:34:58;;;;;;;11.17;6.27;;;-0.20;99.90;;;;;;5023371;28;20434;-61
2021/11/28 05:37:24;;;;;;;9.97;6.80;;;-0.10;99.90;;;;;;5024284;28;20209;-60
2021/11/28 05:39:50;;;;;;;10.40;6.30;;;-0.10;99.90;;;;;;5023923;28;20667;-59
2021/11/28 05:42:15;;;;;;;11.20;6.53;;;-0.10;99.90;;;;;;5023721;28;20198;-61
2021/11/28 05:44:42;;;;;;;8.67;6.30;;;-0.10;99.90;;;;;;5024856;28;20549;-61
2021/11/28 05:47:07;;;;;;;12.53;7.50;;;-0.10;99.90;;;;;;5023239;28;20385;-60
2021/11/28 05:49:33;;;;;;;9.97;5.87;;;-0.10;99.90;;;;;;5021566;28;20463;-60
2021/11/28 05:51:59;;;;;;;8.17;6.60;;;-0.10;99.90;;;;;;5023358;28;20237;-59
2021/11/28 05:54:24;;;;;;;14.57;6.17;;;-0.10;99.90;;;;;;5025423;28;20189;-59
2021/11/28 05:56:51;;;;;;;9.60;6.00;;;-0.10;99.90;;;;;;5025363;28;20205;-59
2021/11/28 05:59:16;;;;;;;9.63;6.33;;;-0.20;99.90;;;;;;5022489;28;21699;-59
2021/11/28 06:01:42;;;;;;;9.73;5.53;;;-0.20;99.90;;;;;;5023847;28;20444;-60
2021/11/28 06:04:08;;;;;;;9.20;6.00;;;-0.20;99.90;;;;;;5028530;28;20182;-59
2021/11/28 06:06:33;;;;;;;8.30;5.80;;;-0.20;99.90;;;;;;5026839;28;20185;-61
2021/11/28 06:09:00;;;;;;;11.97;5.93;;;-0.20;99.90;;;;;;5034498;28;20213;-61
2021/11/28 06:11:25;;;;;;;9.17;6.40;;;-0.20;99.90;;;;;;5052344;28;20261;-60
2021/11/28 06:13:51;;;;;;;9.77;6.10;;;-0.30;99.90;;;;;;5041610;28;20432;-59
2021/11/28 06:16:17;;;;;;;16.33;9.17;;;-0.30;99.90;;;;;;5026895;28;20731;-59
2021/11/28 06:18:43;;;;;;;16.00;8.60;;;-0.30;99.90;;;;;;5027196;28;20224;-59
2021/11/28 06:21:09;;;;;;;24.13;12.10;;;-0.30;99.90;;;;;;5026367;28;20995;-60
2021/11/28 06:23:34;;;;;;;14.77;8.73;;;-0.30;99.90;;;;;;5029181;28;20204;-59
2021/11/28 06:26:00;;;;;;;16.20;7.50;;;-0.30;99.90;;;;;;5026816;28;20195;-59
2021/11/28 06:28:26;;;;;;;10.50;7.20;;;-0.30;99.90;;;;;;5024792;28;20174;-59
2021/11/28 06:30:51;;;;;;;13.50;7.33;;;-0.30;99.90;;;;;;5041044;28;20212;-60
2021/11/28 06:33:18;;;;;;;10.23;7.20;;;-0.30;99.90;;;;;;5027018;28;20186;-59
2021/11/28 06:35:44;;;;;;;11.10;6.07;;;-0.20;99.90;;;;;;5029912;28;20225;-60
2021/11/28 06:38:10;;;;;;;11.80;7.90;;;-0.20;99.90;;;;;;5051242;28;20432;-60
2021/11/28 06:40:35;;;;;;;13.47;8.17;;;-0.20;99.90;;;;;;5052333;28;20490;-60
2021/11/28 06:43:01;;;;;;;11.30;8.87;;;-0.10;99.90;;;;;;5038825;28;20174;-59
2021/11/28 06:45:27;;;;;;;11.83;7.90;;;-0.10;99.90;;;;;;5026321;28;20196;-60
2021/11/28 06:47:53;;;;;;;16.07;9.60;;;-0.10;99.90;;;;;;5026095;28;20626;-58
2021/11/28 06:50:19;;;;;;;17.37;8.90;;;-0.10;99.90;;;;;;5026153;28;20178;-59
2021/11/28 06:52:46;;;;;;;11.87;7.23;;;-0.10;99.90;;;;;;5025552;28;20535;-60
2021/11/28 06:55:12;;;;;;;7.87;6.30;;;-0.10;99.90;;;;;;5030594;28;20166;-60
2021/11/28 06:57:37;;;;;;;16.50;8.30;;;-0.10;99.90;;;;;;5029811;28;20476;-59
2021/11/28 07:00:06;;;;;;;13.57;7.10;;;-0.10;99.90;;;;;;5031576;28;21478;-60
2021/11/28 07:02:31;;;;;;;15.83;6.80;;;-0.10;99.90;;;;;;5031480;28;20228;-60
2021/11/28 07:04:58;;;;;;;15.47;7.07;;;-0.10;99.90;;;;;;5036286;28;20442;-60
2021/11/28 07:07:25;;;;;;;12.10;7.00;;;-0.20;99.90;;;;;;5042334;28;20181;-60
2021/11/28 07:09:51;;;;;;;15.30;6.87;;;-0.20;99.90;;;;;;5041647;28;21180;-60
2021/11/28 07:12:17;;;;;;;11.43;7.07;;;-0.20;99.90;;;;;;5031275;28;20482;-58
2021/11/28 07:14:42;;;;;;;10.47;6.73;;;-0.20;99.90;;;;;;5025667;28;20425;-59
2021/11/28 07:17:08;;;;;;;10.30;6.80;;;-0.20;99.90;;;;;;5028757;28;20186;-59
2021/11/28 07:19:35;;;;;;;9.83;6.20;;;-0.20;99.90;;;;;;5025364;28;20182;-59
2021/11/28 07:22:01;;;;;;;9.70;6.20;;;-0.20;99.90;;;;;;5018468;28;20232;-59
2021/11/28 07:24:27;;;;;;;11.80;6.97;;;-0.20;99.90;;;;;;5026215;28;20436;-60
2021/11/28 07:26:52;;;;;;;15.80;7.43;;;-0.20;99.90;;;;;;5023738;28;20447;-61
2021/11/28 07:29:19;;;;;;;10.83;6.87;;;-0.20;99.90;;;;;;5025606;28;20892;-58
2021/11/28 07:31:45;;;;;;;13.67;6.90;;;-0.20;99.90;;;;;;5022463;28;20735;-60
2021/11/28 07:34:11;;;;;;;13.57;8.00;;;-0.20;99.90;;;;;;5027044;28;20941;-60
2021/11/28 07:36:37;;;;;;;9.77;7.17;;;-0.20;99.90;;;;;;5026152;28;20420;-61
2021/11/28 07:39:07;;;;;;;19.30;9.07;;;-0.20;99.90;;;;;;5026554;28;20180;-60
2021/11/28 07:41:33;;;;;;;13.90;7.57;;;-0.10;99.90;;;;;;5025797;28;20441;-59
2021/11/28 07:43:59;;;;;;;10.30;7.70;;;-0.10;99.90;;;;;;5025426;28;20527;-59
2021/11/28 07:46:24;;;;;;;14.83;8.17;;;-0.10;99.90;;;;;;5025923;28;20523;-59
2021/11/28 07:48:50;;;;;;;16.67;8.20;;;0.00;99.90;;;;;;5028112;28;20177;-60
2021/11/28 07:51:16;;;;;;;11.53;6.67;;;0.00;99.90;;;;;;5024159;28;20304;-60
2021/11/28 07:53:45;;;;;;;20.23;9.80;;;0.10;99.90;;;;;;5026492;28;20270;-59
2021/11/28 07:56:10;;;;;;;25.10;10.30;;;0.10;99.90;;;;;;5021184;28;20510;-59
2021/11/28 07:58:37;;;;;;;16.87;8.10;;;0.10;99.90;;;;;;5024331;28;20542;-59
2021/11/28 08:01:03;;;;;;;14.80;7.43;;;0.10;99.90;;;;;;5020532;28;20330;-59
2021/11/28 08:03:28;;;;;;;10.97;6.97;;;0.10;99.90;;;;;;5024251;28;20455;-58
2021/11/28 08:05:58;;;;;;;11.40;6.90;;;0.20;99.90;;;;;;5025077;28;20749;-59
2021/11/28 08:08:27;;;;;;;13.30;7.43;;;0.20;99.90;;;;;;5022276;28;20178;-60
2021/11/28 08:10:53;;;;;;;12.83;7.40;;;0.20;99.90;;;;;;5026387;28;20428;-59
2021/11/28 08:13:18;;;;;;;10.90;6.80;;;0.30;99.90;;;;;;5022448;28;20424;-59
2021/11/28 08:15:44;;;;;;;11.20;6.90;;;0.30;99.90;;;;;;5028271;28;20992;-60
2021/11/28 08:18:10;;;;;;;15.37;7.23;;;0.30;99.90;;;;;;5017595;28;20228;-59
2021/11/28 08:20:36;;;;;;;13.97;7.70;;;0.30;99.90;;;;;;5016187;28;20196;-59
2021/11/28 08:23:04;;;;;;;13.50;8.00;;;0.30;99.90;;;;;;5026052;28;20950;-65
2021/11/28 08:25:30;;;;;;;15.57;8.17;;;0.40;99.90;;;;;;5018822;28;20364;-60
2021/11/28 08:27:55;;;;;;;13.03;7.70;;;0.40;99.90;;;;;;5024594;28;20441;-59
2021/11/28 08:30:21;;;;;;;10.87;7.73;;;0.40;99.90;;;;;;5020288;28;20189;-59
2021/11/28 08:32:50;;;;;;;15.73;8.20;;;0.50;99.90;;;;;;5029178;28;20205;-58
2021/11/28 08:35:17;;;;;;;12.67;6.90;;;0.50;99.90;;;;;;5012534;28;20939;-59
2021/11/28 08:37:43;;;;;;;13.10;8.60;;;0.50;99.90;;;;;;5019411;28;21321;-60
2021/11/28 08:40:12;;;;;;;22.50;8.20;;;0.50;99.90;;;;;;5023421;28;20447;-58
2021/11/28 08:42:38;;;;;;;19.90;10.80;;;0.50;99.90;;;;;;5028310;28;20959;-58
2021/11/28 08:45:08;;;;;;;14.50;8.83;;;0.50;99.90;;;;;;5029088;28;20512;-61
2021/11/28 08:47:34;;;;;;;16.40;9.30;;;0.50;99.90;;;;;;5024861;28;20177;-61
2021/11/28 08:50:00;;;;;;;12.67;9.00;;;0.60;99.90;;;;;;5049250;28;21171;-62
2021/11/28 08:52:26;;;;;;;14.10;8.70;;;0.60;99.90;;;;;;5036626;28;20480;-59
2021/11/28 08:54:52;;;;;;;18.30;8.80;;;0.60;99.90;;;;;;5018835;28;21458;-59
2021/11/28 08:57:18;;;;;;;12.97;7.90;;;0.60;99.90;;;;;;5019551;28;20490;-59
2021/11/28 08:59:44;;;;;;;11.50;7.30;;;0.70;99.90;;;;;;5019771;28;20236;-59
2021/11/28 09:02:11;;;;;;;11.80;7.33;;;0.70;99.90;;;;;;5040116;28;20524;-60
2021/11/28 09:04:39;;;;;;;11.87;7.33;;;0.80;99.90;;;;;;5047087;28;20456;-62
2021/11/28 09:07:05;;;;;;;12.07;7.20;;;0.80;99.90;;;;;;5040598;28;20449;-60
2021/11/28 09:09:31;;;;;;;12.30;7.93;;;0.80;99.90;;;;;;5025214;28;21635;-58
2021/11/28 09:11:58;;;;;;;13.60;7.77;;;0.90;99.90;;;;;;5016163;28;20242;-58
2021/11/28 09:14:24;;;;;;;10.80;7.00;;;0.90;99.90;;;;;;5023467;28;20440;-59
2021/11/28 09:16:50;;;;;;;10.73;6.70;;;0.90;99.90;;;;;;5025867;28;20432;-58
2021/11/28 09:21:41;;;;;;;12.83;8.40;;;1.00;99.90;;;;;;5021178;28;20215;-58
2021/11/28 09:26:51;;;;;;;16.20;8.53;;;1.10;99.90;;;;;;5021930;28;20273;-58
2021/11/28 09:29:18;;;;;;;20.40;8.77;;;1.20;99.90;;;;;;5022079;28;20880;-58
2021/11/28 09:31:43;;;;;;;13.93;8.70;;;1.20;99.90;;;;;;5021074;28;20628;-59
2021/11/28 09:34:09;;;;;;;18.17;9.70;;;1.20;99.90;;;;;;5021068;28;20428;-58
2021/11/28 09:36:35;;;;;;;12.30;8.17;;;1.30;99.90;;;;;;5008770;28;20260;-59
2021/11/28 09:39:02;;;;;;;10.73;7.70;;;1.30;99.90;;;;;;5018949;28;20275;-59
2021/11/28 09:41:35;;;;;;;13.00;8.47;;;1.30;99.90;;;;;;5019757;28;20703;-58
2021/11/28 09:44:08;;;;;;;12.57;8.13;;;1.30;99.90;;;;;;5013050;28;20447;-60
2021/11/28 09:46:35;;;;;;;15.17;7.93;;;1.40;99.90;;;;;;5018005;28;20454;-59
2021/11/28 09:49:05;;;;;;;10.97;7.10;;;1.40;99.90;;;;;;5012513;28;20803;-58
2021/11/28 09:51:31;;;;;;;15.13;8.00;;;1.40;99.90;;;;;;5024036;28;21008;-60
2021/11/28 09:54:03;;;;;;;10.53;7.83;;;1.40;99.90;;;;;;5009866;28;20552;-58
2021/11/28 09:56:33;;;;;;;11.33;8.03;;;1.40;99.90;;;;;;5038614;28;20424;-59
2021/11/28 09:58:59;;;;;;;16.80;10.27;;;1.40;99.90;;;;;;5020866;28;20407;-58
2021/11/28 10:01:26;;;;;;;11.93;8.70;;;1.50;99.90;;;;;;5018415;28;20517;-59
2021/11/28 10:03:53;;;;;;;16.40;7.93;;;1.50;99.90;;;;;;5021415;28;20436;-60
2021/11/28 10:06:19;;;;;;;11.40;7.40;;;1.50;99.90;;;;;;5028204;28;20437;-58
2021/11/28 10:08:45;;;;;;;10.17;7.17;;;1.60;99.90;;;;;;5022983;28;20810;-59
2021/11/28 10:11:16;;;;;;;10.33;6.27;;;1.60;99.90;;;;;;5014982;28;20449;-58
2021/11/28 10:13:47;;;;;;;9.07;6.97;;;1.60;99.90;;;;;;5022323;28;20433;-58
2021/11/28 10:16:14;;;;;;;11.63;7.30;;;1.70;99.90;;;;;;5016124;28;20426;-57
2021/11/28 10:18:40;;;;;;;10.67;6.30;;;1.70;99.90;;;;;;5022044;28;20461;-57
2021/11/28 10:21:06;;;;;;;12.03;7.37;;;1.80;99.90;;;;;;5020915;28;21011;-62
2021/11/28 10:23:32;;;;;;;12.13;7.33;;;1.80;99.90;;;;;;5017055;28;20432;-61
2021/11/28 10:26:17;;;;;;;8.97;6.20;;;1.90;99.90;;;;;;5019653;28;20430;-59
2021/11/28 10:29:10;;;;;;;7.93;5.50;;;1.90;99.90;;;;;;5017182;28;20430;-62
2021/11/28 10:31:52;;;;;;;13.20;5.60;;;1.90;99.90;;;;;;5024554;28;21028;-58
2021/11/28 10:34:27;;;;;;;8.17;5.77;;;2.00;99.90;;;;;;5018355;28;20427;-59
2021/11/28 10:37:04;;;;;;;7.10;4.40;;;2.00;99.90;;;;;;5024133;28;20428;-62
2021/11/28 10:39:45;;;;;;;8.07;4.60;;;2.10;99.90;;;;;;5015122;28;20434;-59
2021/11/28 10:42:22;;;;;;;6.97;4.20;;;2.10;99.90;;;;;;5022291;23;20500;-61
2021/11/28 10:45:19;;;;;;;8.30;5.17;;;2.10;99.90;;;;;;5013986;28;21902;-60
2021/11/28 10:47:51;;;;;;;8.67;5.40;;;2.10;99.90;;;;;;5006116;28;20851;-60
2021/11/28 10:50:32;;;;;;;7.60;4.43;;;2.10;99.90;;;;;;5006211;28;21874;-57
2021/11/28 10:53:21;;;;;;;7.00;4.67;;;2.10;99.90;;;;;;5012483;28;20536;-60
2021/11/28 10:56:01;;;;;;;7.47;5.17;;;2.10;99.90;;;;;;5008087;28;20459;-61
2021/11/28 10:58:30;;;;;;;9.23;5.27;;;2.10;99.90;;;;;;5011406;28;20539;-59
2021/11/28 11:01:05;;;;;;;10.27;6.50;;;2.20;99.90;;;;;;5013007;28;20486;-61
2021/11/28 11:03:38;;;;;;;9.83;5.00;;;2.20;99.90;;;;;;5015362;28;20433;-59
2021/11/28 11:06:15;;;;;;;11.80;6.27;;;2.20;99.90;;;;;;5018046;28;20429;-61
2021/11/28 11:08:40;;;;;;;5.90;4.47;;;2.20;99.90;;;;;;5022151;28;20428;-60
2021/11/28 11:11:13;;;;;;;6.43;4.10;;;2.20;99.90;;;;;;5014919;28;20434;-58
2021/11/28 11:13:56;;;;;;;5.63;4.07;;;2.20;99.90;;;;;;5019699;28;20170;-59
2021/11/28 11:16:52;;;;;;;4.90;4.00;;;2.10;99.90;;;;;;5013103;28;20430;-58
2021/11/28 11:19:29;;;;;;;8.07;4.40;;;2.10;99.80;;;;;;5015672;28;20430;-59
2021/11/28 11:22:07;;;;;;;5.03;3.93;;;2.10;99.80;;;;;;5011394;28;20454;-59
2021/11/28 11:24:34;;;;;;;4.13;3.73;;;2.10;99.40;;;;;;5009795;28;20439;-58
2021/11/28 11:27:13;;;;;;;6.63;4.13;;;2.10;99.90;;;;;;5012605;28;20463;-58
2021/11/28 11:29:48;;;;;;;11.90;4.13;;;2.10;99.10;;;;;;5008675;28;20456;-59
2021/11/28 11:32:15;;;;;;;5.10;4.30;;;2.10;99.40;;;;;;5013096;28;20565;-60
2021/11/28 11:34:49;;;;;;;5.23;3.70;;;2.20;99.90;;;;;;5013323;28;20435;-60
2021/11/28 11:37:16;;;;;;;4.53;3.77;;;2.30;99.90;;;;;;5013190;28;20438;-59
2021/11/28 11:39:45;;;;;;;5.40;3.80;;;2.30;99.10;;;;;;5011766;28;20953;-62
2021/11/28 11:42:14;;;;;;;6.63;3.60;;;2.30;98.50;;;;;;5016341;28;20468;-55
2021/11/28 11:44:43;;;;;;;5.93;4.10;;;2.30;97.70;;;;;;5015817;28;20449;-58
2021/11/28 11:47:09;;;;;;;10.60;5.83;;;2.40;97.60;;;;;;5015246;28;20435;-60
2021/11/28 11:49:39;;;;;;;7.53;3.20;;;2.40;97.10;;;;;;5014873;28;20444;-60
2021/11/28 11:52:09;;;;;;;2.07;1.97;;;2.40;96.50;;;;;;5013360;28;20337;-58
2021/11/28 11:54:48;;;;;;;3.27;2.40;;;2.50;94.40;;;;;;5010850;28;20866;-60
2021/11/28 11:57:26;;;;;;;3.13;2.30;;;2.40;93.50;;;;;;5012736;28;20477;-61
2021/11/28 12:00:16;;;;;;;3.13;2.80;;;2.40;94.20;;;;;;5011644;28;20436;-61
2021/11/28 12:02:50;;;;;;;2.67;2.37;;;2.40;93.90;;;;;;5008325;28;20584;-61
2021/11/28 12:05:25;;;;;;;2.50;2.30;;;2.40;93.20;;;;;;5011069;28;20944;-61
2021/11/28 12:07:54;;;;;;;2.57;2.37;;;2.40;93.20;;;;;;5013739;28;21214;-58
2021/11/28 12:10:36;;;;;;;2.60;2.40;;;2.50;93.10;;;;;;5013474;28;20436;-61
2021/11/28 12:13:14;;;;;;;5.73;3.17;;;2.50;92.10;;;;;;5015579;28;20473;-57
2021/11/28 12:15:49;;;;;;;4.23;2.67;;;2.50;92.60;;;;;;5011684;28;20433;-55
2021/11/28 12:18:33;;;;;;;7.80;4.60;;;2.50;91.30;;;;;;5023123;28;20437;-55
2021/11/28 12:21:04;;;;;;;4.70;3.30;;;2.50;91.90;;;;;;5018551;28;20594;-54
2021/11/28 12:24:11;;;;;;;2.70;2.50;;;2.50;91.70;;;;;;5015019;28;20973;-56
2021/11/28 12:26:45;;;;;;;8.70;4.10;;;2.50;91.80;;;;;;5015163;28;20433;-57
2021/11/28 12:29:11;;;;;;;3.10;2.40;;;2.50;91.80;;;;;;5015922;28;20431;-58
2021/11/28 12:31:49;;;;;;;7.93;3.80;;;2.50;92.40;;;;;;5016703;28;20453;-57
2021/11/28 12:34:19;;;;;;;5.67;3.77;;;2.50;92.30;;;;;;5022401;28;20178;-58
2021/11/28 12:36:46;;;;;;;5.20;2.80;;;2.50;91.70;;;;;;5027411;28;20419;-58
2021/11/28 12:39:24;;;;;;;7.20;3.83;;;2.50;91.60;;;;;;5027479;28;20428;-58
2021/11/28 12:41:56;;;;;;;5.50;2.70;;;2.50;91.60;;;;;;5013519;28;20462;-57
2021/11/28 12:44:26;;;;;;;9.40;4.60;;;2.40;91.20;;;;;;5015615;28;20458;-59
2021/11/28 12:46:56;;;;;;;11.60;5.97;;;2.40;90.60;;;;;;5018598;28;20860;-65
2021/11/28 12:49:45;;;;;;;5.23;3.00;;;2.40;91.50;;;;;;5018231;28;20550;-61
2021/11/28 12:52:23;;;;;;;3.50;2.23;;;2.40;91.90;;;;;;5019718;28;20488;-61
2021/11/28 12:55:07;;;;;;;2.47;2.27;;;2.40;92.50;;;;;;5013825;28;20561;-61
2021/11/28 12:57:43;;;;;;;4.87;3.40;;;2.40;92.00;;;;;;5019540;28;20467;-62
2021/11/28 13:00:22;;;;;;;5.13;2.77;;;2.50;92.30;;;;;;5015554;28;21442;-64